Date,TemperatureHighF,TemperatureAvgF,TemperatureLowF,DewpointHighF,DewpointAvgF,DewpointLowF,HumidityHigh,HumidityAvg,HumidityLow,PressureMaxIn,PressureMinIn,WindSpeedMaxMPH,WindSpeedAvgMPH,GustSpeedMaxMPH,PrecipitationSumIn
2013-1-20,18.5,16.7,14.5,5.9,4.1,2.0,64,57,54,30.20,30.17,12,2,12,0.00
2013-1-21,18.0,12.2,4.2,12.3,3.3,-5.5,86,67,47,30.17,29.99,17,2,18,0.00
2013-1-22,10.0,4.2,-1.5,1.0,-5.4,-13.0,82,64,46,30.35,30.15,17,2,17,0.00
2013-1-23,17.0,10.1,2.0,11.8,4.3,-3.3,86,77,61,30.35,30.14,10,1,13,0.00
2013-1-24,18.7,12.7,8.6,9.5,4.5,-0.8,87,70,43,30.63,30.18,11,1,12,0.00
2013-1-25,21.9,16.8,10.9,17.0,12.0,1.5,90,81,65,30.56,30.07,6,0,7,0.00
2013-1-26,27.5,20.2,11.3,18.1,14.8,8.8,91,80,58,30.50,30.10,11,0,11,0.00
2013-1-27,29.7,23.1,7.7,27.9,18.6,5.6,94,83,59,30.53,30.20,10,1,10,0.00
2013-1-28,43.9,36.0,29.7,43.2,34.7,27.7,98,95,92,30.21,29.87,9,0,12,0.38
2013-1-29,55.5,43.9,32.2,53.4,43.0,31.2,98,97,92,30.04,29.42,9,1,10,0.66
2013-1-30,58.8,49.1,30.3,56.2,46.8,24.0,97,92,76,29.42,29.10,20,2,23,0.48
2013-1-31,30.2,21.9,15.8,23.9,14.4,9.8,90,73,56,29.92,29.27,22,4,26,0.00
2013-2-1,20.8,15.5,10.3,11.5,7.5,1.9,84,71,52,30.30,29.92,16,3,20,0.00
2013-2-2,23.0,15.3,4.0,18.6,11.2,1.7,90,83,73,30.24,30.00,7,1,14,0.00
2013-2-3,21.3,13.7,3.7,16.4,7.9,1.2,91,78,61,30.07,29.89,11,1,14,0.00
2013-2-4,21.7,17.5,10.7,16.9,13.6,5.9,90,85,75,30.08,29.94,3,0,4,0.00
2013-2-5,27.3,22.5,15.4,24.8,17.9,12.8,92,83,54,30.03,29.85,9,1,12,0.00
2013-2-6,32.4,21.9,8.3,19.4,15.2,6.2,93,76,49,30.35,30.03,8,0,10,0.00
2013-2-7,35.7,29.6,24.3,27.2,23.4,18.5,93,78,69,30.34,29.89,7,2,10,0.00
2013-2-8,28.8,25.8,20.6,27.5,22.8,16.8,95,88,82,30.39,29.82,16,2,21,0.00
2013-2-9,32.6,21.5,10.7,20.1,15.8,8.8,93,80,55,30.49,30.33,5,0,7,0.00
2013-2-10,36.3,26.7,11.3,34.2,22.7,9.2,95,85,67,30.33,29.72,7,1,10,0.02
2013-2-11,42.5,36.8,32.1,41.1,30.9,25.8,96,79,67,29.89,29.57,21,4,28,0.11
2013-2-12,32.2,30.6,27.5,26.0,23.5,20.9,79,75,69,30.06,29.89,14,2,17,0.00
2013-2-13,40.5,29.7,26.2,25.4,23.1,21.2,92,77,50,29.94,29.76,9,0,9,0.00
2013-2-14,38.5,33.3,24.4,35.2,29.9,22.7,95,87,77,29.87,29.70,19,2,23,0.03
2013-2-15,34.7,26.8,20.3,29.2,16.9,11.9,86,66,49,30.14,29.84,13,2,15,0.00
2013-2-16,27.3,19.5,13.2,20.1,14.3,11.3,92,81,54,30.12,30.01,8,0,9,0.00
2013-2-17,23.1,15.1,7.7,13.0,6.8,3.4,89,71,47,30.28,30.09,13,1,13,0.00
2013-2-18,44.1,29.8,11.0,35.6,21.6,8.4,89,72,56,30.28,29.60,9,1,14,0.00
2013-2-19,43.8,28.5,18.1,39.6,22.8,10.2,93,79,64,29.94,29.43,19,4,25,0.16
2013-2-20,22.5,19.7,16.2,15.3,11.4,7.8,85,70,59,30.29,29.94,16,3,20,0.00
2013-2-21,23.2,19.5,16.9,19.3,13.7,10.1,88,78,64,30.44,30.29,10,2,11,0.00
2013-2-22,33.2,27.4,20.9,31.9,25.2,17.1,96,91,84,30.34,29.92,10,2,12,0.00
2013-2-23,33.7,30.6,25.3,30.4,23.8,20.5,91,76,62,29.94,29.89,10,2,13,0.03
2013-2-24,36.1,27.6,18.5,28.4,22.7,16.6,92,82,65,30.20,29.92,10,1,13,0.02
2013-2-25,40.7,27.9,14.0,25.1,20.5,12.1,93,76,49,30.27,30.16,6,0,9,0.00
2013-2-26,37.3,31.5,24.1,31.6,27.2,21.8,95,84,66,30.16,29.54,13,3,17,0.04
2013-2-27,36.1,34.0,32.7,34.6,32.4,31.4,96,94,91,29.60,29.50,5,0,7,0.40
2013-2-28,36.4,32.7,28.7,33.3,29.7,25.3,95,89,81,29.99,29.56,12,2,17,0.26
2013-3-1,28.8,26.1,24.4,25.7,21.6,20.0,88,83,77,30.14,29.99,13,2,19,0.00
2013-3-2,28.3,24.6,22.3,22.7,19.9,17.2,87,82,74,30.11,30.08,9,1,14,0.00
2013-3-3,27.9,21.8,15.8,18.2,15.9,13.6,93,78,59,30.11,30.03,9,1,14,0.00
2013-3-4,37.2,23.4,10.4,17.3,14.2,8.7,93,70,38,30.19,30.11,5,0,8,0.00
2013-3-5,36.0,27.1,15.4,25.3,21.5,13.4,92,80,61,30.19,29.90,13,3,16,0.01
2013-3-6,41.4,33.9,27.2,31.0,27.9,24.0,90,79,64,30.24,29.91,11,2,16,0.00
2013-3-7,35.7,31.8,22.7,30.9,27.1,20.1,91,83,72,30.43,30.23,6,0,11,0.00
2013-3-8,44.9,32.4,20.9,29.3,24.7,18.3,93,75,50,30.53,30.43,8,1,9,0.00
2013-3-9,45.7,34.4,23.4,32.8,28.7,21.9,96,80,58,30.45,30.07,8,1,13,0.00
2013-3-10,63.5,49.6,32.3,45.7,38.0,30.0,92,67,42,30.07,29.81,13,0,13,0.00
2013-3-11,54.7,47.9,37.9,47.6,43.1,32.7,93,84,66,29.81,29.47,12,2,20,0.36
2013-3-12,37.8,34.8,30.3,33.2,29.0,23.5,87,79,65,29.93,29.68,14,2,17,0.00
2013-3-13,34.2,28.9,25.1,28.2,19.7,12.8,92,69,45,30.21,29.86,14,3,18,0.00
2013-3-14,41.0,30.3,21.6,21.5,17.3,12.9,80,60,32,30.28,30.08,9,1,15,0.00
2013-3-15,38.7,34.5,29.2,34.0,28.5,16.5,93,79,52,30.08,29.88,11,2,15,0.02
2013-3-16,32.1,28.4,24.9,26.9,24.5,21.3,93,85,74,30.07,29.81,8,2,10,0.00
2013-3-17,30.2,25.3,19.7,23.6,15.6,13.5,81,67,51,30.32,30.07,12,3,15,0.00
2013-3-18,35.0,29.2,20.2,33.0,25.7,14.5,95,87,76,30.22,29.59,14,3,15,0.00
2013-3-19,34.4,26.6,24.0,31.2,20.4,16.3,88,77,66,29.95,29.63,18,4,25,0.00
2013-3-20,30.0,23.8,16.2,18.4,14.2,10.7,79,67,49,29.97,29.91,12,2,17,0.00
2013-3-21,32.2,24.9,15.7,25.4,19.0,10.6,87,78,66,29.95,29.87,11,2,15,0.00
2013-3-22,39.2,30.1,25.0,24.5,20.7,17.5,84,68,52,30.06,29.95,11,2,12,0.01
2013-3-23,40.8,31.8,24.4,25.6,23.4,21.8,90,72,52,30.13,30.05,7,1,8,0.00
2013-3-24,36.8,29.9,21.9,29.2,23.8,19.2,92,79,53,30.07,29.67,15,4,18,0.00
2013-3-25,39.0,34.6,30.9,29.3,26.9,24.6,81,73,63,29.93,29.62,16,4,21,0.00
2013-3-26,45.2,37.3,33.1,31.8,29.0,26.0,83,72,48,30.12,29.93,11,2,13,0.00
2013-3-27,47.5,38.8,30.2,29.5,26.3,24.1,81,62,42,30.20,30.11,13,2,16,0.00
2013-3-28,51.5,41.1,33.1,30.9,26.4,23.7,75,57,34,30.28,30.20,9,1,12,0.00
2013-3-29,54.0,41.2,29.3,26.2,22.3,17.6,80,50,25,30.30,30.20,8,1,10,0.00
2013-3-30,57.2,43.4,25.3,28.7,23.0,13.1,87,51,18,30.24,29.92,10,1,13,0.00
2013-3-31,58.3,44.9,33.5,42.6,34.7,27.6,88,70,36,29.92,29.62,15,2,16,0.07
2013-4-1,37.2,31.3,25.6,30.7,16.0,10.3,89,54,34,30.12,29.71,14,2,20,0.00
2013-4-2,40.5,31.5,22.5,19.4,13.5,10.1,82,49,29,30.27,30.11,17,2,18,0.00
2013-4-3,42.8,31.9,22.7,19.0,13.7,8.1,73,49,26,30.45,30.27,14,1,16,0.00
2013-4-4,57.2,41.7,25.1,24.0,17.3,11.0,81,42,16,30.39,29.96,14,1,16,0.00
2013-4-5,47.1,38.5,26.7,31.8,22.7,15.4,83,56,30,30.25,29.96,12,2,13,0.00
2013-4-6,48.9,38.1,26.2,31.8,23.1,17.1,82,56,31,30.30,29.76,9,2,14,0.00
2013-4-7,57.4,47.3,31.4,46.0,35.9,27.1,90,66,38,30.07,29.62,20,2,25,0.00
2013-4-8,62.8,39.9,28.2,53.5,36.1,26.2,94,87,58,30.07,29.73,18,1,22,0.14
2013-4-9,48.5,43.6,40.4,45.0,41.1,38.0,95,91,79,30.12,29.91,12,1,12,1.17
2013-4-10,42.9,40.2,37.3,41.4,38.6,35.7,96,94,92,30.09,29.85,18,2,18,0.39
2013-4-11,38.8,36.4,34.9,36.7,34.8,33.6,95,94,91,30.02,29.69,16,4,16,1.16
2013-4-12,43.2,38.1,34.6,40.1,35.2,32.9,96,89,73,29.78,29.55,16,2,18,0.37
2013-4-13,42.5,39.5,37.7,37.9,30.8,27.4,90,71,58,30.01,29.77,16,3,21,0.01
2013-4-14,46.1,39.8,29.0,36.0,30.8,26.1,92,71,51,30.14,30.00,13,1,13,0.00
2013-4-15,70.3,52.0,33.3,54.8,43.1,31.2,93,74,50,30.01,29.90,13,1,16,0.02
2013-4-16,62.0,54.6,44.5,54.2,42.6,31.5,91,67,34,30.25,29.87,12,1,12,0.01
2013-4-17,58.9,47.5,38.3,45.2,36.2,30.2,92,67,42,30.37,30.08,11,2,13,0.58
2013-4-18,79.1,58.3,44.0,64.8,53.9,41.5,94,86,58,30.08,29.57,22,2,28,0.59
2013-4-19,59.1,46.2,37.3,57.3,40.0,28.6,96,79,58,29.74,29.30,31,4,31,0.45
2013-4-20,39.7,34.2,27.5,31.9,22.0,15.2,86,62,45,30.48,29.73,19,2,21,0.00
2013-4-21,47.3,37.2,22.4,29.2,24.0,17.7,94,62,32,30.67,30.48,11,1,13,0.00
2013-4-22,61.2,46.3,28.3,38.5,29.6,22.8,93,58,25,30.52,30.23,11,1,11,0.00
2013-4-23,71.0,55.0,35.4,54.1,40.8,32.8,93,64,34,30.23,29.82,12,1,19,0.21
2013-4-24,55.2,39.8,35.3,53.7,37.2,30.1,95,90,73,30.13,29.75,12,1,12,0.69
2013-4-25,52.2,41.1,31.1,41.9,31.8,26.8,90,71,39,30.36,30.12,15,1,18,0.11
2013-4-26,59.9,47.1,28.5,36.1,31.7,26.6,94,60,33,30.49,30.36,9,1,10,0.00
2013-4-27,71.5,55.7,33.9,41.5,35.7,31.5,92,52,26,30.39,30.13,10,1,10,0.01
2013-4-28,57.9,50.3,41.7,52.3,43.9,36.8,96,79,65,30.13,29.85,5,0,5,0.28
2013-4-29,69.4,59.0,52.5,56.7,53.3,51.4,97,83,56,29.94,29.84,5,0,5,0.01
2013-4-30,73.3,60.8,48.7,59.2,53.5,47.3,97,78,53,30.10,29.94,14,0,14,0.24
2013-5-1,82.0,65.4,45.6,62.3,53.7,44.5,97,69,44,30.25,30.08,9,1,10,0.00
2013-5-2,81.7,66.0,48.9,55.5,49.1,42.8,94,57,35,30.27,30.15,10,1,11,0.00
2013-5-3,76.6,64.9,50.9,54.8,44.4,31.1,81,51,20,30.15,30.08,10,1,12,0.00
2013-5-4,72.4,62.0,50.8,47.9,41.9,34.2,85,51,27,30.15,30.08,11,1,11,0.00
2013-5-5,74.8,60.3,43.3,47.3,39.7,30.5,91,52,22,30.13,30.03,12,1,12,0.00
2013-5-6,78.1,61.3,40.8,52.4,43.8,38.1,92,56,34,30.09,29.99,7,0,8,0.00
2013-5-7,79.8,63.8,45.6,59.2,47.7,40.6,86,59,34,30.08,29.99,8,0,11,0.00
2013-5-8,86.1,65.5,50.2,57.2,49.2,41.6,83,58,27,30.02,29.93,8,0,9,0.00
2013-5-9,86.8,68.4,48.2,57.4,46.4,37.5,93,52,21,29.96,29.89,7,0,7,0.00
2013-5-10,67.1,56.6,41.8,61.5,51.7,38.8,95,84,48,29.90,29.73,5,0,5,0.39
2013-5-11,62.7,48.1,38.9,48.3,41.4,33.5,93,79,48,29.89,29.73,16,1,16,0.01
2013-5-12,50.6,42.5,34.1,35.3,30.3,24.5,84,63,44,30.10,29.85,12,1,13,0.00
2013-5-13,56.8,43.3,28.9,33.6,26.7,21.8,86,55,27,30.19,30.10,8,0,8,0.00
2013-5-14,69.9,52.4,37.5,46.7,40.3,33.2,89,65,38,30.14,29.76,10,0,10,0.00
2013-5-15,84.5,68.3,49.9,60.4,48.5,43.4,97,54,29,29.79,29.58,5,0,9,0.02
2013-5-16,85.0,66.4,48.3,52.2,44.5,37.9,88,49,22,30.05,29.78,4,0,6,0.00
2013-5-17,74.1,58.9,44.6,51.3,43.5,38.9,84,59,33,30.18,30.05,3,0,5,0.00
2013-5-18,82.1,66.9,52.3,55.1,46.0,40.3,75,51,24,30.17,30.05,6,0,9,0.00
2013-5-19,87.3,74.8,51.1,66.6,60.0,47.4,88,62,40,30.04,29.88,5,0,7,0.00
2013-5-20,90.3,74.8,58.5,72.8,63.0,56.5,95,70,40,29.94,29.75,9,0,12,0.00
2013-5-21,86.5,74.5,62.3,69.6,62.6,58.2,95,70,41,29.81,29.70,8,0,13,0.19
2013-5-22,81.4,69.3,62.9,67.6,63.0,58.2,97,82,49,29.73,29.60,11,1,18,0.06
2013-5-23,63.3,51.4,39.5,59.4,48.3,35.5,94,89,82,30.17,29.67,4,0,7,0.16
2013-5-24,58.0,45.3,35.9,41.8,35.9,31.8,92,71,45,30.38,30.17,5,0,9,0.00
2013-5-25,69.0,50.9,32.7,45.7,36.8,29.1,97,63,32,30.42,30.30,4,0,6,0.00
2013-5-26,73.8,54.3,34.7,45.7,36.9,32.5,94,57,25,30.36,30.26,4,0,7,0.00
2013-5-27,68.8,52.3,35.1,50.3,41.6,30.1,95,72,24,30.28,30.01,5,0,7,0.50
2013-5-28,70.1,60.2,50.9,68.2,59.1,49.5,98,96,92,30.01,29.81,4,0,7,1.77
2013-5-29,84.5,71.7,61.5,69.1,65.4,59.7,98,83,48,30.00,29.74,9,0,11,0.07
2013-5-30,90.2,71.1,59.6,73.9,65.9,58.8,98,86,47,30.06,29.97,14,0,23,1.05
2013-5-31,83.1,71.5,62.4,71.0,66.8,61.5,98,86,60,29.98,29.80,10,0,12,0.67
2013-6-1,80.8,71.2,64.0,69.4,64.4,61.3,96,80,57,29.83,29.64,9,0,11,0.08
2013-6-2,74.0,64.4,51.8,64.2,56.1,43.2,90,75,57,29.99,29.64,8,1,12,0.00
2013-6-3,71.0,57.2,42.1,48.9,43.4,37.6,91,63,33,30.11,29.99,4,0,5,0.00
2013-6-4,74.7,59.1,44.4,54.1,44.1,35.4,92,61,34,30.21,30.11,4,0,6,0.00
2013-6-5,76.5,61.7,44.8,54.2,46.1,39.5,88,59,31,30.20,30.00,4,0,6,0.00
2013-6-6,69.1,59.1,51.4,57.3,49.8,43.0,90,72,59,30.01,29.87,3,0,6,0.01
2013-6-7,63.0,56.8,50.8,55.6,52.0,48.3,93,84,72,29.92,29.87,3,0,3,0.00
2013-6-8,73.2,62.2,52.9,58.6,53.4,50.3,91,74,50,30.10,29.91,2,0,4,0.00
2013-6-9,77.2,66.0,51.0,60.9,54.0,48.8,95,67,47,30.14,29.96,6,0,8,0.00
2013-6-10,69.7,64.5,59.5,67.9,62.8,54.4,97,94,71,29.97,29.73,1,0,4,1.18
2013-6-11,81.1,70.7,62.1,68.7,64.6,61.2,97,83,56,29.87,29.76,5,0,7,0.00
2013-6-12,76.0,68.5,60.1,68.9,64.6,58.7,97,88,74,29.92,29.63,6,0,6,0.30
2013-6-13,79.3,68.5,60.2,64.6,59.1,53.4,96,74,44,29.93,29.57,7,0,9,0.69
2013-6-14,79.8,66.1,53.4,61.2,54.5,49.7,92,69,38,30.07,29.92,4,0,6,0.00
2013-6-15,80.5,66.7,50.2,66.4,58.1,48.8,97,76,45,30.08,29.86,5,0,10,0.00
2013-6-16,66.1,65.2,64.5,61.6,60.8,60.2,87,86,85,29.87,29.83,3,0,4,0.00
2013-6-20,84.3,66.8,54.6,60.5,55.0,52.3,92,69,34,30.22,30.15,3,0,7,0.00
2013-6-21,86.9,72.7,53.6,70.9,61.5,51.6,96,70,47,30.22,30.02,4,0,5,0.00
2013-6-22,92.9,78.0,68.4,75.2,68.3,60.8,91,73,49,30.06,29.96,5,0,11,0.00
2013-6-23,91.7,80.3,68.6,73.4,68.0,64.9,94,68,43,30.04,29.94,9,0,12,0.00
2013-6-24,90.8,77.6,66.7,72.9,67.9,64.2,96,74,47,30.03,29.87,9,1,10,0.49
2013-6-25,84.4,72.8,66.2,74.4,68.5,64.2,95,87,65,29.95,29.80,6,0,8,0.23
2013-6-26,89.3,76.6,65.2,75.1,68.7,63.7,96,78,50,29.85,29.71,6,0,6,0.01
2013-6-27,88.3,73.7,65.7,74.7,68.7,64.5,96,86,49,29.73,29.60,7,0,7,2.21
2013-6-28,79.1,68.5,65.1,69.1,65.5,60.7,97,91,62,29.64,29.51,9,0,9,0.28
2013-6-29,77.3,66.8,60.4,66.1,61.7,56.3,96,84,65,29.74,29.53,6,0,7,0.00
2013-6-30,81.7,68.5,59.0,67.3,58.4,45.8,92,72,49,29.95,29.73,6,0,6,0.00
2013-7-1,69.6,63.5,59.2,60.7,55.7,45.8,92,76,59,30.07,29.94,6,0,6,0.08
2013-7-2,76.8,67.8,59.4,66.2,60.5,54.9,88,78,63,30.08,30.02,4,0,4,0.00
2013-7-3,84.8,71.2,58.0,71.9,63.2,56.0,96,78,48,30.10,30.04,5,0,9,0.00
2013-7-4,83.2,75.9,68.1,70.4,66.8,62.7,95,75,51,30.11,30.05,8,0,8,0.00
2013-7-5,86.8,76.0,69.3,70.6,66.9,60.4,94,75,45,30.10,30.03,4,0,5,0.01
2013-7-6,86.4,75.1,65.7,72.1,67.9,63.6,96,80,57,30.10,29.97,6,0,7,0.15
2013-7-7,85.3,75.2,70.2,72.1,69.6,67.3,96,84,58,30.01,29.94,7,0,9,0.16
2013-7-8,85.5,74.7,69.4,75.5,69.7,66.1,96,85,69,30.01,29.94,5,0,8,0.63
2013-7-9,83.2,74.2,72.7,71.7,70.6,69.2,93,89,64,29.88,29.84,5,0,7,0.05
2013-7-10,91.1,78.4,64.3,76.3,69.5,58.1,97,76,52,29.92,29.73,8,0,10,0.63
2013-7-11,82.8,68.6,59.6,63.8,58.4,55.3,88,72,46,30.07,29.92,4,0,7,0.00
2013-7-12,85.7,70.1,55.1,68.5,60.1,53.5,97,73,45,30.16,30.07,4,0,4,0.00
2013-7-13,86.9,72.3,58.5,67.7,61.6,56.1,97,73,38,30.22,30.14,4,0,5,0.00
2013-7-14,92.4,79.5,63.1,73.2,68.7,61.7,95,72,43,30.25,30.21,4,0,5,0.00
2013-7-15,92.2,78.2,68.5,83.0,72.8,66.7,96,85,60,30.29,30.21,4,0,4,0.58
2013-7-16,95.3,82.9,72.6,81.5,75.9,71.7,98,81,56,30.29,30.20,4,0,5,0.00
2013-7-17,96.9,84.0,72.9,79.9,75.0,70.7,94,76,50,30.25,30.11,6,0,6,0.00
2013-7-18,96.3,84.8,72.9,79.3,73.7,70.2,93,71,47,30.13,29.92,7,0,8,0.00
2013-7-19,96.0,84.2,76.0,76.8,72.5,64.7,87,70,42,29.93,29.67,15,1,17,0.55
2013-7-20,89.0,77.1,67.6,71.3,66.3,58.8,97,73,38,29.93,29.70,10,0,10,1.79
2013-7-21,85.4,71.8,61.4,68.8,60.9,54.3,85,70,45,30.00,29.92,4,0,4,0.00
2013-7-22,83.2,73.1,64.3,71.0,64.0,58.6,90,74,50,29.97,29.75,5,0,5,0.00
2013-7-23,80.0,70.1,59.9,73.9,65.7,52.3,96,86,67,29.87,29.66,9,0,9,0.27
2013-7-24,76.0,63.5,54.5,59.5,52.8,49.2,91,69,47,30.06,29.87,4,0,5,0.00
2013-7-25,81.1,65.7,48.9,61.8,54.3,47.2,96,70,39,30.11,30.05,4,0,4,0.00
2013-7-26,80.6,66.1,55.2,60.8,57.2,53.8,96,76,45,30.11,29.91,6,0,6,0.00
2013-7-27,74.5,66.2,55.4,67.7,62.9,53.7,95,89,71,29.91,29.72,5,0,5,0.93
2013-7-28,67.7,57.6,48.9,57.5,53.2,47.8,97,86,64,29.98,29.82,10,0,10,0.08
2013-7-29,71.2,61.3,55.2,59.7,56.1,53.6,95,84,63,30.17,29.97,5,0,6,0.02
2013-7-30,82.4,68.3,51.9,64.3,57.6,50.9,98,71,40,30.24,30.12,5,0,5,0.00
2013-7-31,72.4,66.5,59.9,68.3,64.2,57.7,97,92,86,30.14,29.86,2,0,2,0.47
2013-8-1,81.3,68.2,62.4,67.4,61.7,56.1,97,82,45,29.90,29.86,4,0,5,0.00
2013-8-2,77.6,66.0,54.4,64.0,59.3,52.9,97,80,53,29.92,29.83,10,0,11,0.00
2013-8-3,80.0,68.7,55.9,63.9,58.6,54.0,97,73,43,30.05,29.87,5,0,5,0.00
2013-8-4,76.7,64.1,53.3,61.8,55.4,50.8,96,75,51,30.16,30.04,5,0,5,0.00
2013-8-5,75.5,62.0,51.2,59.2,53.7,49.2,96,77,44,30.13,29.98,5,0,6,0.00
2013-8-6,78.7,69.1,61.4,66.9,63.1,57.2,94,82,63,29.98,29.89,7,0,8,0.02
2013-8-7,84.8,72.6,62.5,71.7,66.0,61.3,97,81,55,29.91,29.81,7,0,8,0.03
2013-8-8,80.2,69.7,62.4,69.1,63.8,55.7,94,82,60,30.01,29.88,3,0,3,0.00
2013-8-9,83.4,70.7,58.3,64.2,58.6,54.6,93,68,39,30.00,29.92,5,0,6,0.00
2013-8-10,81.7,68.2,58.4,64.4,58.7,54.5,95,74,43,30.13,29.99,2,0,3,0.00
2013-8-11,80.8,69.2,59.0,65.4,60.1,55.2,90,74,46,30.12,30.02,4,0,7,0.00
2013-8-12,70.3,65.8,62.1,67.0,63.2,59.8,96,91,86,30.05,29.83,6,0,7,0.34
2013-8-13,68.4,62.2,52.9,64.2,54.6,46.8,97,78,54,30.04,29.81,7,0,8,0.01
2013-8-14,73.9,60.1,49.6,57.9,51.3,46.6,92,74,45,30.16,30.04,6,0,7,0.00
2013-8-15,78.4,62.9,47.8,57.4,51.2,46.2,95,69,38,30.18,30.09,5,0,8,0.00
2013-8-16,82.6,67.5,50.4,64.0,56.3,49.3,97,71,38,30.21,30.11,3,0,4,0.00
2013-8-17,83.7,67.1,51.1,64.8,56.3,49.8,97,72,40,30.27,30.19,4,0,4,0.00
2013-8-18,85.1,67.7,54.5,67.1,56.8,51.7,97,73,32,30.23,30.11,4,0,4,0.00
2013-8-19,85.3,70.6,56.0,66.0,57.8,49.1,96,69,30,30.12,30.02,8,0,8,0.00
2013-8-20,87.7,71.1,56.8,67.6,61.4,55.6,97,75,42,30.13,30.05,6,0,6,0.00
2013-8-21,88.3,75.8,62.8,70.7,65.9,61.3,97,74,47,30.12,29.97,9,0,9,0.00
2013-8-22,86.5,76.4,68.4,70.1,67.0,63.9,90,74,51,30.03,29.93,6,0,7,0.00
2013-8-23,85.2,70.5,58.2,64.1,57.7,50.3,90,67,32,30.21,30.03,5,0,5,0.00
2013-8-24,84.5,68.5,52.8,66.1,57.6,51.4,97,72,38,30.32,30.21,5,0,7,0.00
2013-8-25,84.8,71.7,54.4,65.7,59.9,53.0,97,70,43,30.30,30.13,9,0,11,0.00
2013-8-26,89.2,79.3,71.3,73.4,68.1,62.4,81,69,55,30.15,29.93,8,0,9,0.00
2013-8-27,80.9,76.2,69.7,75.1,72.2,67.9,96,87,77,29.96,29.82,9,0,9,0.90
2013-8-28,80.2,71.2,65.1,73.6,68.8,63.6,97,92,70,30.03,29.76,1,0,3,0.01
2013-8-29,90.8,81.1,66.0,74.7,70.0,64.8,96,70,49,30.07,29.99,3,0,5,0.00
2013-8-30,88.4,76.0,64.0,72.9,68.0,62.8,98,79,51,29.99,29.72,11,1,14,1.15
2013-8-31,79.5,73.1,65.0,71.9,68.7,63.1,97,87,68,29.84,29.73,3,0,3,0.00
2013-9-1,80.5,69.7,62.7,72.5,66.4,61.3,96,89,72,29.85,29.71,4,0,5,0.00
2013-9-2,77.5,68.9,60.1,69.7,62.5,53.3,97,81,59,29.90,29.70,5,0,6,0.03
2013-9-3,77.2,63.8,56.5,60.5,55.2,52.8,93,75,48,30.00,29.89,5,0,5,0.00
2013-9-4,82.8,68.0,51.6,64.2,58.8,50.2,97,75,47,30.07,29.97,8,0,8,0.00
2013-9-5,73.5,62.6,49.2,62.0,52.6,46.5,95,72,42,30.27,30.07,5,0,7,0.00
2013-9-6,77.0,59.5,43.3,55.0,45.2,34.3,97,66,22,30.30,30.08,5,0,6,0.00
2013-9-7,81.7,67.5,53.0,69.9,60.6,49.3,92,79,59,30.08,29.89,6,0,7,0.02
2013-9-8,71.4,58.5,52.6,54.0,51.1,50.0,91,77,52,30.08,30.06,2,0,3,0.00
2013-9-9,77.7,62.2,49.7,69.6,58.0,48.0,95,87,74,30.08,29.92,3,0,3,0.00
2013-10-2,68.8,56.5,50.9,54.0,50.9,48.4,91,82,53,30.07,30.03,0,0,0,0.00
2013-10-3,78.3,64.0,49.4,68.8,58.9,47.5,95,84,66,30.07,29.92,8,0,9,0.00
2013-10-4,79.9,70.4,62.2,69.5,65.7,60.6,96,86,67,30.03,29.93,5,0,6,0.01
2013-10-5,74.4,67.2,63.5,69.8,64.8,61.8,96,92,84,30.04,29.85,4,0,4,0.31
2013-10-6,70.8,65.6,54.6,67.2,63.6,53.0,97,94,85,29.85,29.61,8,0,8,0.30
2013-10-7,57.9,51.8,44.7,53.5,48.3,43.0,96,88,72,30.12,29.66,12,0,12,0.05
2013-10-8,67.0,52.1,40.4,52.7,44.7,39.3,97,79,43,30.31,30.12,4,0,5,0.00
2013-10-9,70.1,52.7,39.3,57.8,45.4,38.3,97,80,42,30.34,30.24,5,0,6,0.00
2013-10-10,69.7,52.5,40.0,57.1,44.7,39.0,97,79,40,30.26,30.15,5,0,5,0.00
2013-10-11,70.4,52.8,39.3,53.2,44.3,38.1,97,77,33,30.18,30.09,3,0,4,0.00
2013-10-12,75.1,59.5,44.2,61.7,53.0,43.0,97,81,47,30.12,30.04,6,0,9,0.00
2013-10-13,67.8,58.5,47.1,58.8,47.9,38.4,97,71,35,30.34,30.09,5,0,5,0.00
2013-10-14,63.1,51.5,41.6,48.2,44.1,39.7,95,78,50,30.42,30.29,4,0,4,0.00
2013-10-15,65.3,52.4,36.9,60.1,49.2,35.6,97,89,75,30.29,29.83,5,0,6,0.08
2013-10-16,62.0,57.2,52.7,60.3,51.6,45.5,96,82,60,29.90,29.80,10,0,12,0.01
2013-10-17,53.6,50.9,45.2,50.3,48.2,43.3,94,90,85,29.89,29.75,4,0,8,0.32
2013-10-18,62.6,50.1,39.7,48.0,42.6,38.4,97,78,44,29.92,29.83,8,0,9,0.01
2013-10-19,50.4,44.7,41.0,44.8,41.4,38.0,95,88,73,29.90,29.73,8,0,8,0.18
2013-10-20,68.5,49.9,36.4,49.5,40.9,34.8,96,74,42,29.92,29.84,18,1,20,0.04
2013-10-21,55.6,53.3,50.7,44.7,44.3,43.8,78,71,65,29.84,29.82,14,2,18,0.00
2013-11-8,34.3,31.2,28.7,30.6,27.9,25.7,91,87,78,30.25,30.20,0,0,1,0.00
2013-11-9,55.1,46.8,33.7,42.1,36.4,30.3,90,68,54,30.21,29.79,24,4,26,0.00
2013-11-10,47.7,44.2,41.0,37.4,32.9,30.8,86,65,54,30.22,29.90,22,4,23,0.02
2013-11-15,53.4,48.6,36.2,36.5,30.3,27.0,77,50,39,30.09,30.00,13,2,13,0.00
2013-11-16,55.4,44.0,28.9,51.5,40.2,26.5,94,87,77,30.13,29.81,15,2,17,0.00
2013-11-17,60.9,56.5,47.3,57.7,52.8,40.8,95,88,68,29.82,29.20,39,5,44,0.85
2013-11-18,47.7,40.4,35.2,41.8,31.0,24.0,80,69,62,30.13,29.44,31,7,37,0.00
2013-11-19,41.5,35.9,31.6,25.6,23.7,21.2,70,61,49,30.42,30.13,13,1,16,0.00
2013-11-25,30.3,29.7,29.3,26.2,22.4,15.0,87,74,53,30.14,30.11,18,4,22,0.00
2013-11-26,33.7,31.5,29.0,28.9,27.4,25.9,89,85,79,30.13,29.93,13,1,13,0.00
2013-11-27,30.2,23.2,18.7,26.5,14.9,9.9,86,70,57,30.21,29.92,24,3,24,0.00
2013-11-28,33.0,23.3,17.0,27.9,17.6,10.4,95,79,66,30.46,30.21,8,1,10,0.00
2013-11-29,33.9,23.4,11.7,24.1,18.6,9.6,94,82,59,30.70,30.46,7,0,8,0.00
2013-11-30,43.9,34.5,25.3,30.4,27.1,22.2,90,75,53,30.59,30.11,11,1,11,0.00
2013-12-1,43.7,36.4,31.8,35.5,31.5,27.4,91,82,70,30.11,30.00,9,1,9,0.00
2013-12-2,38.6,32.5,24.0,30.5,25.9,21.1,91,77,54,30.01,29.92,9,0,10,0.00
2013-12-3,36.9,32.0,21.8,34.4,29.3,19.8,95,90,81,29.96,29.89,8,1,9,0.02
2013-12-4,55.5,44.0,35.6,51.8,41.7,34.3,96,92,87,29.94,29.62,12,2,16,0.03
2013-12-5,58.1,43.2,30.5,54.5,35.4,21.8,91,74,60,30.15,29.62,27,5,27,0.00
2013-12-6,30.5,25.7,19.2,22.1,17.1,13.0,77,69,62,30.43,30.11,13,2,16,0.00
2013-12-7,24.3,19.3,12.7,14.2,10.1,8.3,83,67,51,30.65,30.42,13,2,18,0.00
2013-12-8,28.8,19.4,11.1,27.0,14.4,7.7,93,81,66,30.63,30.01,12,2,13,0.00
2013-12-9,30.2,27.0,20.0,28.6,22.1,10.5,94,82,66,30.11,29.89,24,5,25,0.00
2013-12-10,22.1,18.6,13.3,17.8,9.9,2.2,85,69,45,30.21,29.97,26,4,28,0.00
2013-12-11,22.6,17.5,7.6,17.7,11.2,1.5,88,76,66,30.49,30.20,15,3,16,0.00
2013-12-12,20.1,13.7,5.3,14.4,6.6,0.3,87,73,46,30.48,30.19,21,3,22,0.00
2013-12-13,26.6,23.5,18.8,20.5,17.7,11.0,85,78,70,30.35,30.17,14,1,14,0.00
2013-12-14,21.8,18.4,15.8,19.8,15.4,10.2,92,88,68,30.34,29.83,11,2,13,0.00
2013-12-15,24.7,19.0,10.9,22.2,14.6,6.2,93,83,69,30.06,29.82,22,3,25,0.00
2013-12-16,23.5,15.2,9.7,12.6,8.8,5.7,90,76,51,30.22,30.05,8,1,11,0.00
2013-12-17,28.0,22.2,14.5,24.6,19.2,12.1,92,88,83,30.05,29.91,15,1,15,0.00
2013-12-18,30.3,26.1,22.3,25.1,21.5,15.9,92,83,71,30.13,29.91,17,2,19,0.00
2013-12-19,40.7,32.5,24.4,34.4,27.2,17.8,93,80,71,30.02,29.89,9,1,11,0.12
2013-12-20,34.6,33.5,32.4,33.6,32.2,30.7,96,95,93,29.94,29.75,6,0,6,0.48
2013-12-21,33.9,33.0,32.1,32.6,31.8,30.6,96,95,94,29.90,29.68,12,1,12,0.71
2013-12-22,37.5,33.7,32.0,34.7,32.1,30.7,96,94,88,29.98,29.58,19,1,20,0.32
2013-12-23,32.3,27.8,20.9,31.0,24.2,14.5,95,86,77,30.32,29.98,15,2,15,0.00
2013-12-24,20.9,13.0,4.4,14.9,8.5,2.1,91,82,71,30.59,30.30,14,2,16,0.00
2013-12-25,24.3,17.8,3.1,22.1,14.9,0.8,92,88,82,30.55,30.14,12,1,12,0.00
2013-12-26,27.2,25.2,24.3,24.2,20.9,15.3,92,84,67,30.31,30.06,17,2,22,0.00
2013-12-27,38.5,32.1,24.5,32.3,28.3,22.0,92,86,76,30.34,30.06,15,2,16,0.07
2013-12-28,47.8,39.7,30.8,36.2,33.2,28.0,91,78,62,30.13,29.90,16,2,17,0.02
2013-12-29,42.0,33.5,19.4,33.3,28.0,14.7,91,81,67,30.02,29.69,15,2,18,0.00
2013-12-30,19.7,17.7,15.2,15.9,9.1,4.6,85,69,58,30.30,30.02,13,1,13,0.00
2013-12-31,19.8,16.6,13.1,16.6,10.7,5.2,89,78,64,30.37,30.08,22,3,24,0.00
2014-1-1,15.5,12.8,10.2,12.8,7.7,1.5,90,80,63,30.46,30.29,8,1,9,0.00
2014-1-2,14.3,11.2,2.1,11.7,7.6,-3.4,90,85,76,30.31,30.13,18,3,18,0.00